createdAt,value
2023-11-25T00:03:45.373Z,11.90
2023-11-25T00:07:47.484Z,12.11
2023-11-25T00:11:49.240Z,12.31
2023-11-25T00:15:50.633Z,12.41
2023-11-25T00:19:51.943Z,12.23
2023-11-25T00:23:53.588Z,11.94
2023-11-25T00:27:54.939Z,11.91
2023-11-25T00:31:56.249Z,12.01
2023-11-25T00:35:57.668Z,11.96
2023-11-25T00:40:00.374Z,12.08
2023-11-25T00:44:04.365Z,11.77
2023-11-25T00:48:07.886Z,12.10
2023-11-25T00:52:09.612Z,12.15
2023-11-25T00:56:11.730Z,12.21
2023-11-25T01:00:17.490Z,11.97
2023-11-25T01:04:19.314Z,11.91
2023-11-25T01:08:21.356Z,12.05
2023-11-25T01:12:23.759Z,12.08
2023-11-25T01:16:26.093Z,12.24
2023-11-25T01:20:27.902Z,12.20
2023-11-25T01:24:29.680Z,12.17
2023-11-25T01:28:31.183Z,12.34
2023-11-25T01:32:32.728Z,12.60
2023-11-25T01:36:34.120Z,12.72
2023-11-25T01:40:35.537Z,12.72
2023-11-25T01:44:36.862Z,12.50
2023-11-25T01:48:38.637Z,12.76
2023-11-25T01:52:41.719Z,12.90
2023-11-25T01:56:45.582Z,12.77
2023-11-25T02:00:47.929Z,12.67
2023-11-25T02:04:49.496Z,12.73
2023-11-25T02:08:51.743Z,12.67
2023-11-25T02:12:53.087Z,12.68
2023-11-25T02:16:58.252Z,12.57
2023-11-25T02:20:59.806Z,12.43
2023-11-25T02:25:01.119Z,12.31
2023-11-25T02:29:02.578Z,12.33
2023-11-25T02:33:04.157Z,12.40
2023-11-25T02:37:08.092Z,12.33
2023-11-25T02:41:11.463Z,12.19
2023-11-25T02:45:13.232Z,12.23
2023-11-25T02:49:14.878Z,11.93
2023-11-25T02:53:16.280Z,12.07
2023-11-25T02:57:20.258Z,12.27
2023-11-25T03:01:24.752Z,12.05
2023-11-25T03:05:26.123Z,12.18
2023-11-25T03:09:29.113Z,12.10
2023-11-25T03:13:30.575Z,12.11
2023-11-25T03:17:31.978Z,12.21
2023-11-25T03:21:35.015Z,12.26
2023-11-25T03:25:36.473Z,12.20
2023-11-25T03:29:37.965Z,12.21
2023-11-25T03:33:39.600Z,12.19
2023-11-25T03:37:41.322Z,12.02
2023-11-25T03:41:42.745Z,12.14
2023-11-25T03:45:44.071Z,12.19
2023-11-25T03:49:46.135Z,12.15
2023-11-25T03:53:48.287Z,12.18
2023-11-25T03:57:49.784Z,11.92
2023-11-25T04:01:51.709Z,12.17
2023-11-25T04:05:53.383Z,12.26
2023-11-25T04:09:54.691Z,12.34
2023-11-25T04:13:58.556Z,12.16
2023-11-25T04:17:59.995Z,12.39
2023-11-25T04:22:02.464Z,12.43
2023-11-25T04:26:03.890Z,12.69
2023-11-25T04:30:06.334Z,12.65
2023-11-25T04:34:07.658Z,12.72
2023-11-25T04:38:09.317Z,12.65
2023-11-25T04:42:10.655Z,12.57
2023-11-25T04:46:12.364Z,12.73
2023-11-25T04:50:14.965Z,12.59
2023-11-25T04:54:16.409Z,12.57
2023-11-25T04:58:17.810Z,12.63
2023-11-25T05:02:19.282Z,12.63
2023-11-25T05:06:20.833Z,12.66
2023-11-25T05:10:22.440Z,12.72
2023-11-25T05:14:25.701Z,12.69
2023-11-25T05:18:27.107Z,12.57
2023-11-25T05:22:29.339Z,12.71
2023-11-25T05:26:31.006Z,12.68
2023-11-25T05:30:32.350Z,12.85
2023-11-25T05:34:33.954Z,12.81
2023-11-25T05:38:36.732Z,13.05
2023-11-25T05:42:48.366Z,13.04
2023-11-25T05:46:50.595Z,13.21
2023-11-25T05:50:52.003Z,12.76
2023-11-25T05:54:53.441Z,13.14
2023-11-25T05:58:55.100Z,12.70
2023-11-25T06:02:57.067Z,13.05
2023-11-25T06:06:58.403Z,13.18
2023-11-25T06:10:59.750Z,13.37
2023-11-25T06:15:01.577Z,13.23
2023-11-25T06:19:05.009Z,13.24
2023-11-25T06:23:06.347Z,13.40
2023-11-25T06:27:07.941Z,13.05
2023-11-25T06:31:13.541Z,13.49
2023-11-25T06:35:15.069Z,13.37
2023-11-25T06:39:20.282Z,13.45
2023-11-25T06:43:21.739Z,13.32
2023-11-25T06:47:23.469Z,13.82
2023-11-25T06:51:24.918Z,13.65
2023-11-25T06:55:26.297Z,13.29
2023-11-25T06:59:27.854Z,13.53
2023-11-25T07:03:29.218Z,13.37
2023-11-25T07:07:30.908Z,13.49
2023-11-25T07:11:32.433Z,13.47
2023-11-25T07:15:33.833Z,13.47
2023-11-25T07:19:35.171Z,13.59
2023-11-25T07:23:37.237Z,13.33
2023-11-25T07:27:39.592Z,13.68
2023-11-25T07:31:41.103Z,13.31
2023-11-25T07:35:42.524Z,13.54
2023-11-25T07:39:45.515Z,13.42
2023-11-25T07:43:47.274Z,13.55
2023-11-25T07:47:49.001Z,13.45
2023-11-25T07:51:50.745Z,13.56
2023-11-25T07:55:53.142Z,13.28
2023-11-25T07:59:54.757Z,13.21
2023-11-25T08:03:56.283Z,13.80
2023-11-25T08:07:57.911Z,14.04
2023-11-25T08:11:59.675Z,14.20
2023-11-25T08:16:02.164Z,14.18
2023-11-25T08:20:05.051Z,14.20
2023-11-25T08:24:06.871Z,14.43
2023-11-25T08:28:08.361Z,14.26
2023-11-25T08:32:10.029Z,14.01
2023-11-25T08:36:12.599Z,14.14
2023-11-25T08:40:18.200Z,14.17
2023-11-25T08:44:20.867Z,14.65
2023-11-25T08:48:22.269Z,14.21
2023-11-25T08:52:24.378Z,14.08
2023-11-25T08:56:29.720Z,13.67
2023-11-25T09:00:33.193Z,14.53
2023-11-25T09:04:37.197Z,14.29
2023-11-25T09:08:38.578Z,14.20
2023-11-25T09:12:41.155Z,13.57
2023-11-25T09:16:43.864Z,13.84
2023-11-25T09:20:46.257Z,14.19
2023-11-25T09:24:47.587Z,14.64
2023-11-25T09:28:49.046Z,15.33
2023-11-25T09:32:50.574Z,15.23
2023-11-25T09:36:51.981Z,15.13
2023-11-25T09:40:53.486Z,14.87
2023-11-25T09:44:55.922Z,15.25
2023-11-25T09:48:57.368Z,15.42
2023-11-25T09:53:00.401Z,15.69
2023-11-25T09:57:04.700Z,15.95
2023-11-25T10:01:13.271Z,16.63
2023-11-25T10:05:14.813Z,17.72
2023-11-25T10:09:16.796Z,19.29
2023-11-25T10:13:18.120Z,19.14
2023-11-25T10:17:20.957Z,19.69
2023-11-25T10:21:22.291Z,19.78
2023-11-25T10:25:24.224Z,18.31
2023-11-25T10:29:26.077Z,17.25
2023-11-25T10:33:28.524Z,17.26
2023-11-25T10:37:32.734Z,18.01
2023-11-25T10:41:35.076Z,17.21
2023-11-25T10:45:36.633Z,17.18
2023-11-25T10:49:40.131Z,19.86
2023-11-25T10:53:45.685Z,21.39
2023-11-25T10:57:53.112Z,20.96
2023-11-25T11:02:15.513Z,19.34
2023-11-25T11:06:25.062Z,18.07
2023-11-25T11:10:32.319Z,16.91
2023-11-25T11:14:37.907Z,16.82
2023-11-25T11:18:42.656Z,16.38
2023-11-25T11:22:44.274Z,16.63
2023-11-25T11:26:52.608Z,17.00
2023-11-25T11:31:31.353Z,16.59
2023-11-25T11:35:39.824Z,16.83
2023-11-25T11:39:56.169Z,16.42
2023-11-25T11:44:05.024Z,16.18
2023-11-25T11:48:14.995Z,16.05
2023-11-25T11:52:16.375Z,16.38
2023-11-25T11:56:18.573Z,16.14
2023-11-25T12:00:20.043Z,16.15
2023-11-25T12:04:22.075Z,16.29
2023-11-25T12:08:24.461Z,15.48
2023-11-25T12:12:26.184Z,16.28
2023-11-25T12:16:27.642Z,15.87
2023-11-25T12:20:29.630Z,15.32
2023-11-25T12:24:31.098Z,15.39
2023-11-25T12:28:41.440Z,15.52
2023-11-25T12:32:44.735Z,15.61
2023-11-25T12:36:46.318Z,15.18
2023-11-25T12:40:47.814Z,15.84
2023-11-25T12:44:51.444Z,16.37
2023-11-25T12:48:53.070Z,16.35
2023-11-25T12:53:09.027Z,16.16
2023-11-25T12:57:11.551Z,15.97
2023-11-25T13:01:13.728Z,15.89
2023-11-25T13:05:25.407Z,16.16
2023-11-25T13:09:34.693Z,16.49
2023-11-25T13:13:36.654Z,16.31
2023-11-25T13:17:38.102Z,16.14
2023-11-25T13:21:41.284Z,16.33
2023-11-25T13:25:42.768Z,16.14
2023-11-25T13:29:44.384Z,16.49
2023-11-25T13:33:45.936Z,16.30
2023-11-25T13:37:47.466Z,15.49
2023-11-25T13:41:48.906Z,15.87
2023-11-25T13:45:50.308Z,16.30
2023-11-25T13:49:54.642Z,16.34
2023-11-25T13:54:00.249Z,16.20
2023-11-25T13:58:01.713Z,16.61
2023-11-25T14:02:04.021Z,16.43
2023-11-25T14:06:05.983Z,16.15
2023-11-25T14:10:10.431Z,16.48
2023-11-25T14:14:13.235Z,16.51
2023-11-25T14:18:14.842Z,16.38
2023-11-25T14:22:20.090Z,16.12
2023-11-25T14:26:21.428Z,16.70
2023-11-25T14:30:24.373Z,16.17
2023-11-25T14:34:25.780Z,15.77
2023-11-25T14:38:27.151Z,16.25
2023-11-25T14:42:32.294Z,15.80
2023-11-25T14:46:34.856Z,15.71
2023-11-25T14:50:44.350Z,15.59
2023-11-25T14:54:46.043Z,15.73
2023-11-25T14:58:47.596Z,14.48
2023-11-25T15:02:50.116Z,14.46
2023-11-25T15:06:51.515Z,14.52
2023-11-25T15:10:52.956Z,14.95
2023-11-25T15:14:55.785Z,14.80
2023-11-25T15:18:57.368Z,15.19
2023-11-25T15:23:00.808Z,15.25
2023-11-25T15:27:03.182Z,15.28
2023-11-25T15:31:05.076Z,15.24
2023-11-25T15:35:08.373Z,14.81
2023-11-25T15:39:10.198Z,15.11
2023-11-25T15:43:11.517Z,14.70
2023-11-25T15:47:12.906Z,15.06
2023-11-25T15:51:14.413Z,14.80
2023-11-25T15:55:15.720Z,14.78
2023-11-25T15:59:17.054Z,14.18
2023-11-25T16:03:18.460Z,13.78
2023-11-25T16:07:21.928Z,14.46
2023-11-25T16:11:24.444Z,14.41
2023-11-25T16:15:25.954Z,14.30
2023-11-25T16:19:27.588Z,14.61
2023-11-25T16:23:29.460Z,14.23
2023-11-25T16:27:30.758Z,14.46
2023-11-25T16:31:32.405Z,14.89
2023-11-25T16:35:33.897Z,14.91
2023-11-25T16:39:37.793Z,15.00
2023-11-25T16:43:39.933Z,15.02
2023-11-25T16:47:41.391Z,14.74
2023-11-25T16:51:43.135Z,14.77
2023-11-25T16:55:44.733Z,14.83
2023-11-25T16:59:46.175Z,14.62
2023-11-25T17:03:47.885Z,14.45
2023-11-25T17:07:49.501Z,15.11
2023-11-25T17:11:50.963Z,15.02
2023-11-25T17:15:52.267Z,14.74
2023-11-25T17:19:53.789Z,14.89
2023-11-25T17:23:55.420Z,14.67
2023-11-25T17:27:57.824Z,14.95
2023-11-25T17:31:59.564Z,14.65
2023-11-25T17:36:00.938Z,14.92
2023-11-25T17:40:02.700Z,15.12
2023-11-25T17:44:04.266Z,15.15
2023-11-25T17:48:06.320Z,14.61
2023-11-25T17:52:11.216Z,14.68
2023-11-25T17:56:12.579Z,15.41
2023-11-25T18:00:14.159Z,15.44
2023-11-25T18:04:15.533Z,15.18
2023-11-25T18:08:16.907Z,13.98
2023-11-25T18:12:18.280Z,14.90
2023-11-25T18:16:19.887Z,12.89
2023-11-25T18:20:21.329Z,13.72
2023-11-25T18:24:22.691Z,14.05
2023-11-25T18:28:23.999Z,14.57
2023-11-25T18:32:25.329Z,14.57
2023-11-25T18:36:26.705Z,14.38
2023-11-25T18:40:29.307Z,14.63
2023-11-25T18:44:30.768Z,14.98
2023-11-25T18:48:35.668Z,14.91
2023-11-25T18:52:38.388Z,14.82
2023-11-25T18:56:39.776Z,15.14
2023-11-25T19:00:41.446Z,14.95
2023-11-25T19:04:42.876Z,14.93
2023-11-25T19:08:44.224Z,14.91
2023-11-25T19:12:45.612Z,15.14
2023-11-25T19:16:47.110Z,15.21
2023-11-25T19:20:48.536Z,15.21
2023-11-25T19:24:49.842Z,15.35
2023-11-25T19:28:51.582Z,15.31
2023-11-25T19:32:53.059Z,15.48
2023-11-25T19:36:54.600Z,15.62
2023-11-25T19:40:55.983Z,15.75
2023-11-25T19:44:57.520Z,15.40
2023-11-25T19:48:59.720Z,15.43
2023-11-25T19:53:01.112Z,15.33
2023-11-25T19:57:02.484Z,15.32
2023-11-25T20:01:04.084Z,15.36
2023-11-25T20:05:06.491Z,15.37
2023-11-25T20:09:09.688Z,15.56
2023-11-25T20:13:11.101Z,15.09
2023-11-25T20:17:12.620Z,15.19
2023-11-25T20:21:14.350Z,15.13
2023-11-25T20:25:15.805Z,15.02
2023-11-25T20:29:17.149Z,15.37
2023-11-25T20:33:18.558Z,15.47
2023-11-25T20:37:19.963Z,15.24
2023-11-25T20:41:21.284Z,15.44
2023-11-25T20:45:22.805Z,15.39
2023-11-25T20:49:24.481Z,15.10
2023-11-25T20:53:27.070Z,15.14
2023-11-25T20:57:28.404Z,15.27
2023-11-25T21:01:31.390Z,15.16
2023-11-25T21:05:35.790Z,15.23
2023-11-25T21:09:37.312Z,15.41
2023-11-25T21:13:40.395Z,15.27
2023-11-25T21:18:12.530Z,15.15
2023-11-25T21:22:13.980Z,15.31
2023-11-25T21:26:15.519Z,14.76
2023-11-25T21:30:20.379Z,14.95
2023-11-25T21:34:22.774Z,15.03
2023-11-25T21:38:33.623Z,15.21
2023-11-25T21:42:35.019Z,15.22
2023-11-25T21:46:36.440Z,15.03
2023-11-25T21:50:37.833Z,15.23
2023-11-25T21:54:39.269Z,15.20
2023-11-25T21:58:41.655Z,15.20
2023-11-25T22:02:43.308Z,15.15
2023-11-25T22:06:44.931Z,15.15
2023-11-25T22:10:46.653Z,15.12
2023-11-25T22:14:47.985Z,14.76
2023-11-25T22:18:51.737Z,14.95
2023-11-25T22:22:53.405Z,15.15
2023-11-25T22:27:09.283Z,15.20
2023-11-25T22:31:16.747Z,15.15
2023-11-25T22:35:20.746Z,15.10
2023-11-25T22:39:22.410Z,15.07
2023-11-25T22:43:23.759Z,15.28
2023-11-25T22:47:25.293Z,15.11
2023-11-25T22:51:27.559Z,15.04
2023-11-25T22:55:29.252Z,14.99
2023-11-25T22:59:30.688Z,14.93
2023-11-25T23:03:32.458Z,15.01
2023-11-25T23:07:33.904Z,15.12
2023-11-25T23:11:35.636Z,15.46
2023-11-25T23:15:37.201Z,15.18
2023-11-25T23:19:38.573Z,15.14
2023-11-25T23:23:46.167Z,15.21
2023-11-25T23:27:50.483Z,15.38
2023-11-25T23:31:52.177Z,15.39
2023-11-25T23:35:53.657Z,15.14
2023-11-25T23:39:55.040Z,15.29
2023-11-25T23:43:56.429Z,15.12
2023-11-25T23:47:58.308Z,15.13
2023-11-25T23:52:00.602Z,14.78
2023-11-25T23:56:02.114Z,14.84
